sensor_id;sensor_type;location;lat;lon;timestamp;P1;durP1;ratioP1;P2;durP2;ratioP2
17598;SDS011;8918;52.092;5.232;2022-07-04T00:00:09;3.83;;;2.30;;
17598;SDS011;8918;52.092;5.232;2022-07-04T00:02:36;5.82;;;2.15;;
17598;SDS011;8918;52.092;5.232;2022-07-04T00:05:03;4.47;;;2.30;;
17598;SDS011;8918;52.092;5.232;2022-07-04T00:07:29;5.63;;;2.30;;
17598;SDS011;8918;52.092;5.232;2022-07-04T00:09:55;3.78;;;2.13;;
17598;SDS011;8918;52.092;5.232;2022-07-04T00:12:20;4.47;;;2.40;;
17598;SDS011;8918;52.092;5.232;2022-07-04T00:14:46;3.63;;;2.33;;
17598;SDS011;8918;52.092;5.232;2022-07-04T00:17:11;6.80;;;2.45;;
17598;SDS011;8918;52.092;5.232;2022-07-04T00:19:37;4.53;;;2.20;;
17598;SDS011;8918;52.092;5.232;2022-07-04T00:22:03;4.17;;;2.63;;
17598;SDS011;8918;52.092;5.232;2022-07-04T00:24:29;5.33;;;2.57;;
17598;SDS011;8918;52.092;5.232;2022-07-04T00:26:54;5.30;;;2.50;;
17598;SDS011;8918;52.092;5.232;2022-07-04T00:29:20;3.17;;;2.80;;
17598;SDS011;8918;52.092;5.232;2022-07-04T00:31:45;5.22;;;2.90;;
17598;SDS011;8918;52.092;5.232;2022-07-04T00:34:11;7.55;;;3.08;;
17598;SDS011;8918;52.092;5.232;2022-07-04T00:36:36;4.50;;;2.63;;
17598;SDS011;8918;52.092;5.232;2022-07-04T00:39:02;3.45;;;2.65;;
17598;SDS011;8918;52.092;5.232;2022-07-04T00:41:28;4.00;;;2.72;;
17598;SDS011;8918;52.092;5.232;2022-07-04T00:44:01;4.75;;;3.40;;
17598;SDS011;8918;52.092;5.232;2022-07-04T00:46:30;6.03;;;2.90;;
17598;SDS011;8918;52.092;5.232;2022-07-04T00:48:57;4.37;;;2.43;;
17598;SDS011;8918;52.092;5.232;2022-07-04T00:51:23;4.03;;;2.80;;
17598;SDS011;8918;52.092;5.232;2022-07-04T00:53:50;4.50;;;2.70;;
17598;SDS011;8918;52.092;5.232;2022-07-04T00:56:17;6.37;;;3.47;;
17598;SDS011;8918;52.092;5.232;2022-07-04T00:58:42;4.17;;;3.10;;
17598;SDS011;8918;52.092;5.232;2022-07-04T01:01:08;5.80;;;3.30;;
17598;SDS011;8918;52.092;5.232;2022-07-04T01:03:34;7.17;;;3.40;;
17598;SDS011;8918;52.092;5.232;2022-07-04T01:06:00;5.90;;;3.40;;
17598;SDS011;8918;52.092;5.232;2022-07-04T01:08:25;5.40;;;3.30;;
17598;SDS011;8918;52.092;5.232;2022-07-04T01:10:51;6.63;;;3.53;;
17598;SDS011;8918;52.092;5.232;2022-07-04T01:13:20;5.73;;;3.70;;
17598;SDS011;8918;52.092;5.232;2022-07-04T01:15:47;5.57;;;3.53;;
17598;SDS011;8918;52.092;5.232;2022-07-04T01:18:13;8.80;;;4.10;;
17598;SDS011;8918;52.092;5.232;2022-07-04T01:20:39;6.55;;;4.10;;
17598;SDS011;8918;52.092;5.232;2022-07-04T01:23:05;7.30;;;4.53;;
17598;SDS011;8918;52.092;5.232;2022-07-04T01:25:31;5.67;;;4.10;;
17598;SDS011;8918;52.092;5.232;2022-07-04T01:28:00;10.33;;;4.60;;
17598;SDS011;8918;52.092;5.232;2022-07-04T01:30:27;9.00;;;4.80;;
17598;SDS011;8918;52.092;5.232;2022-07-04T01:32:54;5.30;;;4.57;;
17598;SDS011;8918;52.092;5.232;2022-07-04T01:35:20;5.77;;;3.80;;
17598;SDS011;8918;52.092;5.232;2022-07-04T01:37:46;6.37;;;3.97;;
17598;SDS011;8918;52.092;5.232;2022-07-04T01:40:12;7.87;;;4.60;;
17598;SDS011;8918;52.092;5.232;2022-07-04T01:42:40;8.83;;;4.70;;
17598;SDS011;8918;52.092;5.232;2022-07-04T01:45:07;4.87;;;4.30;;
17598;SDS011;8918;52.092;5.232;2022-07-04T01:47:34;10.03;;;4.87;;
17598;SDS011;8918;52.092;5.232;2022-07-04T01:50:01;7.03;;;4.53;;
17598;SDS011;8918;52.092;5.232;2022-07-04T01:52:27;7.20;;;4.60;;
17598;SDS011;8918;52.092;5.232;2022-07-04T01:54:52;7.70;;;4.90;;
17598;SDS011;8918;52.092;5.232;2022-07-04T01:57:18;7.50;;;4.47;;
17598;SDS011;8918;52.092;5.232;2022-07-04T01:59:43;6.20;;;4.50;;
17598;SDS011;8918;52.092;5.232;2022-07-04T02:02:28;6.60;;;4.87;;
17598;SDS011;8918;52.092;5.232;2022-07-04T02:04:53;7.27;;;5.10;;
17598;SDS011;8918;52.092;5.232;2022-07-04T02:07:19;9.57;;;5.43;;
17598;SDS011;8918;52.092;5.232;2022-07-04T02:09:45;8.00;;;5.70;;
17598;SDS011;8918;52.092;5.232;2022-07-04T02:12:10;7.70;;;5.73;;
17598;SDS011;8918;52.092;5.232;2022-07-04T02:14:54;7.43;;;5.87;;
17598;SDS011;8918;52.092;5.232;2022-07-04T02:17:20;8.43;;;5.70;;
17598;SDS011;8918;52.092;5.232;2022-07-04T02:19:46;7.00;;;5.70;;
17598;SDS011;8918;52.092;5.232;2022-07-04T02:22:12;7.53;;;5.47;;
17598;SDS011;8918;52.092;5.232;2022-07-04T02:24:38;8.87;;;5.70;;
17598;SDS011;8918;52.092;5.232;2022-07-04T02:27:04;7.77;;;5.50;;
17598;SDS011;8918;52.092;5.232;2022-07-04T02:29:30;8.70;;;6.20;;
17598;SDS011;8918;52.092;5.232;2022-07-04T02:31:55;8.43;;;5.90;;
17598;SDS011;8918;52.092;5.232;2022-07-04T02:34:21;8.47;;;5.93;;
17598;SDS011;8918;52.092;5.232;2022-07-04T02:36:47;8.40;;;6.60;;
17598;SDS011;8918;52.092;5.232;2022-07-04T02:39:13;7.90;;;6.70;;
17598;SDS011;8918;52.092;5.232;2022-07-04T02:41:38;8.77;;;6.93;;
17598;SDS011;8918;52.092;5.232;2022-07-04T02:44:04;10.47;;;6.83;;
17598;SDS011;8918;52.092;5.232;2022-07-04T02:46:29;9.77;;;6.90;;
17598;SDS011;8918;52.092;5.232;2022-07-04T02:48:57;7.97;;;6.30;;
17598;SDS011;8918;52.092;5.232;2022-07-04T02:51:23;11.33;;;7.07;;
17598;SDS011;8918;52.092;5.232;2022-07-04T02:53:49;8.53;;;6.30;;
17598;SDS011;8918;52.092;5.232;2022-07-04T02:56:15;7.40;;;6.10;;
17598;SDS011;8918;52.092;5.232;2022-07-04T02:58:40;13.87;;;7.30;;
17598;SDS011;8918;52.092;5.232;2022-07-04T03:01:06;8.20;;;6.70;;
17598;SDS011;8918;52.092;5.232;2022-07-04T03:03:32;8.63;;;6.80;;
17598;SDS011;8918;52.092;5.232;2022-07-04T03:05:58;10.50;;;7.27;;
17598;SDS011;8918;52.092;5.232;2022-07-04T03:08:23;7.90;;;6.60;;
17598;SDS011;8918;52.092;5.232;2022-07-04T03:10:49;9.60;;;7.10;;
17598;SDS011;8918;52.092;5.232;2022-07-04T03:13:16;7.67;;;6.27;;
17598;SDS011;8918;52.092;5.232;2022-07-04T03:15:42;9.23;;;6.40;;
17598;SDS011;8918;52.092;5.232;2022-07-04T03:18:07;9.37;;;7.07;;
17598;SDS011;8918;52.092;5.232;2022-07-04T03:20:33;9.60;;;6.80;;
17598;SDS011;8918;52.092;5.232;2022-07-04T03:22:59;10.57;;;6.77;;
17598;SDS011;8918;52.092;5.232;2022-07-04T03:25:24;8.90;;;6.50;;
17598;SDS011;8918;52.092;5.232;2022-07-04T03:27:50;8.70;;;6.10;;
17598;SDS011;8918;52.092;5.232;2022-07-04T03:30:15;12.13;;;7.03;;
17598;SDS011;8918;52.092;5.232;2022-07-04T03:32:41;10.63;;;7.17;;
17598;SDS011;8918;52.092;5.232;2022-07-04T03:35:06;8.87;;;6.20;;
17598;SDS011;8918;52.092;5.232;2022-07-04T03:37:32;8.50;;;6.57;;
17598;SDS011;8918;52.092;5.232;2022-07-04T03:39:58;9.63;;;6.57;;
17598;SDS011;8918;52.092;5.232;2022-07-04T03:42:23;9.83;;;6.90;;
17598;SDS011;8918;52.092;5.232;2022-07-04T03:44:52;13.87;;;7.13;;
17598;SDS011;8918;52.092;5.232;2022-07-04T03:47:17;10.20;;;7.37;;
17598;SDS011;8918;52.092;5.232;2022-07-04T03:49:43;10.07;;;7.07;;
17598;SDS011;8918;52.092;5.232;2022-07-04T03:52:09;8.63;;;6.70;;
17598;SDS011;8918;52.092;5.232;2022-07-04T03:54:34;7.83;;;5.97;;
17598;SDS011;8918;52.092;5.232;2022-07-04T03:57:00;10.97;;;7.10;;
17598;SDS011;8918;52.092;5.232;2022-07-04T03:59:25;11.57;;;7.33;;
17598;SDS011;8918;52.092;5.232;2022-07-04T04:01:51;9.70;;;6.93;;
17598;SDS011;8918;52.092;5.232;2022-07-04T04:04:17;9.70;;;7.17;;
17598;SDS011;8918;52.092;5.232;2022-07-04T04:07:01;9.23;;;7.23;;
17598;SDS011;8918;52.092;5.232;2022-07-04T04:09:27;8.70;;;6.63;;
17598;SDS011;8918;52.092;5.232;2022-07-04T04:11:52;8.30;;;7.03;;
17598;SDS011;8918;52.092;5.232;2022-07-04T04:14:18;10.80;;;7.73;;
17598;SDS011;8918;52.092;5.232;2022-07-04T04:16:43;12.40;;;7.43;;
17598;SDS011;8918;52.092;5.232;2022-07-04T04:19:10;11.73;;;7.87;;
17598;SDS011;8918;52.092;5.232;2022-07-04T04:21:36;10.53;;;7.07;;
17598;SDS011;8918;52.092;5.232;2022-07-04T04:24:02;12.13;;;6.43;;
17598;SDS011;8918;52.092;5.232;2022-07-04T04:26:28;10.00;;;7.57;;
17598;SDS011;8918;52.092;5.232;2022-07-04T04:28:54;10.13;;;7.40;;
17598;SDS011;8918;52.092;5.232;2022-07-04T04:31:19;10.70;;;6.90;;
17598;SDS011;8918;52.092;5.232;2022-07-04T04:33:45;10.23;;;7.07;;
17598;SDS011;8918;52.092;5.232;2022-07-04T04:36:11;10.87;;;7.70;;
17598;SDS011;8918;52.092;5.232;2022-07-04T04:38:36;10.17;;;7.20;;
17598;SDS011;8918;52.092;5.232;2022-07-04T04:41:02;12.20;;;7.33;;
17598;SDS011;8918;52.092;5.232;2022-07-04T04:43:27;12.37;;;7.80;;
17598;SDS011;8918;52.092;5.232;2022-07-04T04:45:53;9.90;;;7.03;;
17598;SDS011;8918;52.092;5.232;2022-07-04T04:48:19;9.43;;;7.13;;
17598;SDS011;8918;52.092;5.232;2022-07-04T04:50:44;9.97;;;7.00;;
17598;SDS011;8918;52.092;5.232;2022-07-04T04:53:12;12.33;;;7.57;;
17598;SDS011;8918;52.092;5.232;2022-07-04T04:55:38;10.93;;;7.37;;
17598;SDS011;8918;52.092;5.232;2022-07-04T04:58:04;9.07;;;6.90;;
17598;SDS011;8918;52.092;5.232;2022-07-04T05:00:30;7.68;;;6.50;;
17598;SDS011;8918;52.092;5.232;2022-07-04T05:02:56;11.47;;;7.17;;
17598;SDS011;8918;52.092;5.232;2022-07-04T05:05:21;12.73;;;6.97;;
17598;SDS011;8918;52.092;5.232;2022-07-04T05:07:47;11.97;;;6.77;;
17598;SDS011;8918;52.092;5.232;2022-07-04T05:10:13;11.77;;;6.70;;
17598;SDS011;8918;52.092;5.232;2022-07-04T05:12:40;12.17;;;6.90;;
17598;SDS011;8918;52.092;5.232;2022-07-04T05:15:06;10.80;;;7.40;;
17598;SDS011;8918;52.092;5.232;2022-07-04T05:17:32;13.43;;;7.07;;
17598;SDS011;8918;52.092;5.232;2022-07-04T05:19:58;11.37;;;6.90;;
17598;SDS011;8918;52.092;5.232;2022-07-04T05:22:23;8.60;;;7.00;;
17598;SDS011;8918;52.092;5.232;2022-07-04T05:24:49;11.63;;;7.20;;
17598;SDS011;8918;52.092;5.232;2022-07-04T05:27:15;10.47;;;7.20;;
17598;SDS011;8918;52.092;5.232;2022-07-04T05:29:40;9.30;;;6.82;;
17598;SDS011;8918;52.092;5.232;2022-07-04T05:32:06;9.98;;;6.43;;
17598;SDS011;8918;52.092;5.232;2022-07-04T05:34:32;11.07;;;7.00;;
17598;SDS011;8918;52.092;5.232;2022-07-04T05:36:58;12.35;;;6.57;;
17598;SDS011;8918;52.092;5.232;2022-07-04T05:39:23;14.53;;;7.30;;
17598;SDS011;8918;52.092;5.232;2022-07-04T05:41:49;12.57;;;6.85;;
17598;SDS011;8918;52.092;5.232;2022-07-04T05:44:15;14.85;;;7.38;;
17598;SDS011;8918;52.092;5.232;2022-07-04T05:46:40;8.27;;;6.20;;
17598;SDS011;8918;52.092;5.232;2022-07-04T05:49:06;8.93;;;5.78;;
17598;SDS011;8918;52.092;5.232;2022-07-04T05:51:32;12.52;;;7.20;;
17598;SDS011;8918;52.092;5.232;2022-07-04T05:53:57;10.57;;;6.22;;
17598;SDS011;8918;52.092;5.232;2022-07-04T05:56:23;8.98;;;5.90;;
17598;SDS011;8918;52.092;5.232;2022-07-04T05:58:48;9.65;;;6.43;;
17598;SDS011;8918;52.092;5.232;2022-07-04T06:01:14;10.55;;;6.28;;
17598;SDS011;8918;52.092;5.232;2022-07-04T06:03:39;13.52;;;6.63;;
17598;SDS011;8918;52.092;5.232;2022-07-04T06:06:05;8.35;;;5.60;;
17598;SDS011;8918;52.092;5.232;2022-07-04T06:08:31;8.70;;;5.82;;
17598;SDS011;8918;52.092;5.232;2022-07-04T06:10:57;11.18;;;6.07;;
17598;SDS011;8918;52.092;5.232;2022-07-04T06:13:23;12.98;;;6.50;;
17598;SDS011;8918;52.092;5.232;2022-07-04T06:15:49;11.70;;;5.60;;
17598;SDS011;8918;52.092;5.232;2022-07-04T06:18:15;7.60;;;5.20;;
17598;SDS011;8918;52.092;5.232;2022-07-04T06:20:41;9.63;;;5.55;;
17598;SDS011;8918;52.092;5.232;2022-07-04T06:23:07;13.27;;;5.95;;
17598;SDS011;8918;52.092;5.232;2022-07-04T06:25:33;11.50;;;5.40;;
17598;SDS011;8918;52.092;5.232;2022-07-04T06:27:59;9.40;;;5.63;;
17598;SDS011;8918;52.092;5.232;2022-07-04T06:30:26;9.85;;;5.45;;
17598;SDS011;8918;52.092;5.232;2022-07-04T06:32:55;13.15;;;5.65;;
17598;SDS011;8918;52.092;5.232;2022-07-04T06:35:23;11.70;;;6.05;;
17598;SDS011;8918;52.092;5.232;2022-07-04T06:38:09;12.63;;;5.85;;
17598;SDS011;8918;52.092;5.232;2022-07-04T06:40:40;12.43;;;6.30;;
17598;SDS011;8918;52.092;5.232;2022-07-04T06:43:05;11.55;;;5.57;;
17598;SDS011;8918;52.092;5.232;2022-07-04T06:45:31;11.15;;;6.32;;
17598;SDS011;8918;52.092;5.232;2022-07-04T06:47:58;11.77;;;6.10;;
17598;SDS011;8918;52.092;5.232;2022-07-04T06:50:31;9.70;;;6.32;;
17598;SDS011;8918;52.092;5.232;2022-07-04T06:52:58;11.98;;;7.03;;
17598;SDS011;8918;52.092;5.232;2022-07-04T06:55:25;14.95;;;7.25;;
17598;SDS011;8918;52.092;5.232;2022-07-04T06:57:50;10.02;;;6.10;;
17598;SDS011;8918;52.092;5.232;2022-07-04T07:00:16;14.52;;;6.57;;
17598;SDS011;8918;52.092;5.232;2022-07-04T07:02:41;12.65;;;6.78;;
17598;SDS011;8918;52.092;5.232;2022-07-04T07:05:07;13.25;;;6.53;;
17598;SDS011;8918;52.092;5.232;2022-07-04T07:07:33;14.82;;;6.15;;
17598;SDS011;8918;52.092;5.232;2022-07-04T07:09:59;11.65;;;6.13;;
17598;SDS011;8918;52.092;5.232;2022-07-04T07:12:26;12.10;;;5.82;;
17598;SDS011;8918;52.092;5.232;2022-07-04T07:14:51;9.93;;;5.60;;
17598;SDS011;8918;52.092;5.232;2022-07-04T07:17:17;9.73;;;5.47;;
17598;SDS011;8918;52.092;5.232;2022-07-04T07:19:43;10.52;;;5.90;;
17598;SDS011;8918;52.092;5.232;2022-07-04T07:22:10;11.95;;;6.07;;
17598;SDS011;8918;52.092;5.232;2022-07-04T07:24:36;13.52;;;6.00;;
17598;SDS011;8918;52.092;5.232;2022-07-04T07:27:02;13.38;;;6.13;;
17598;SDS011;8918;52.092;5.232;2022-07-04T07:29:28;12.40;;;5.72;;
17598;SDS011;8918;52.092;5.232;2022-07-04T07:31:54;12.07;;;5.25;;
17598;SDS011;8918;52.092;5.232;2022-07-04T07:34:20;10.23;;;5.18;;
17598;SDS011;8918;52.092;5.232;2022-07-04T07:36:46;7.63;;;4.78;;
17598;SDS011;8918;52.092;5.232;2022-07-04T07:39:11;8.57;;;4.95;;
17598;SDS011;8918;52.092;5.232;2022-07-04T07:41:37;11.13;;;4.70;;
17598;SDS011;8918;52.092;5.232;2022-07-04T07:44:03;9.90;;;4.60;;
17598;SDS011;8918;52.092;5.232;2022-07-04T07:46:28;7.03;;;3.22;;
17598;SDS011;8918;52.092;5.232;2022-07-04T07:48:54;6.00;;;3.40;;
17598;SDS011;8918;52.092;5.232;2022-07-04T07:51:28;5.38;;;2.97;;
17598;SDS011;8918;52.092;5.232;2022-07-04T07:53:54;5.70;;;3.05;;
17598;SDS011;8918;52.092;5.232;2022-07-04T07:56:20;6.15;;;2.90;;
17598;SDS011;8918;52.092;5.232;2022-07-04T07:58:45;5.25;;;2.85;;
17598;SDS011;8918;52.092;5.232;2022-07-04T08:01:11;6.30;;;2.17;;
17598;SDS011;8918;52.092;5.232;2022-07-04T08:03:37;4.72;;;2.20;;
17598;SDS011;8918;52.092;5.232;2022-07-04T08:06:21;6.43;;;2.35;;
17598;SDS011;8918;52.092;5.232;2022-07-04T08:08:47;4.43;;;2.00;;
17598;SDS011;8918;52.092;5.232;2022-07-04T08:11:12;4.32;;;2.70;;
17598;SDS011;8918;52.092;5.232;2022-07-04T08:13:38;6.10;;;2.22;;
17598;SDS011;8918;52.092;5.232;2022-07-04T08:16:05;3.75;;;2.30;;
17598;SDS011;8918;52.092;5.232;2022-07-04T08:18:31;4.32;;;2.30;;
17598;SDS011;8918;52.092;5.232;2022-07-04T08:20:57;2.67;;;1.80;;
17598;SDS011;8918;52.092;5.232;2022-07-04T08:23:23;4.00;;;1.85;;
17598;SDS011;8918;52.092;5.232;2022-07-04T08:25:49;6.93;;;2.20;;
17598;SDS011;8918;52.092;5.232;2022-07-04T08:28:14;3.10;;;1.98;;
17598;SDS011;8918;52.092;5.232;2022-07-04T08:30:40;3.80;;;2.15;;
17598;SDS011;8918;52.092;5.232;2022-07-04T08:33:05;4.78;;;2.50;;
17598;SDS011;8918;52.092;5.232;2022-07-04T08:35:31;3.22;;;2.35;;
17598;SDS011;8918;52.092;5.232;2022-07-04T08:37:58;5.82;;;2.38;;
17598;SDS011;8918;52.092;5.232;2022-07-04T08:40:24;4.95;;;2.08;;
17598;SDS011;8918;52.092;5.232;2022-07-04T08:42:51;3.53;;;1.80;;
17598;SDS011;8918;52.092;5.232;2022-07-04T08:45:18;5.10;;;2.22;;
17598;SDS011;8918;52.092;5.232;2022-07-04T08:47:50;3.42;;;2.15;;
17598;SDS011;8918;52.092;5.232;2022-07-04T08:50:25;3.55;;;2.30;;
17598;SDS011;8918;52.092;5.232;2022-07-04T08:52:54;4.45;;;2.30;;
17598;SDS011;8918;52.092;5.232;2022-07-04T08:55:23;5.05;;;2.40;;
17598;SDS011;8918;52.092;5.232;2022-07-04T08:58:08;3.95;;;2.22;;
17598;SDS011;8918;52.092;5.232;2022-07-04T09:00:54;3.95;;;2.20;;
17598;SDS011;8918;52.092;5.232;2022-07-04T09:03:25;5.03;;;2.13;;
17598;SDS011;8918;52.092;5.232;2022-07-04T09:05:52;3.30;;;2.10;;
17598;SDS011;8918;52.092;5.232;2022-07-04T09:08:17;2.65;;;2.10;;
17598;SDS011;8918;52.092;5.232;2022-07-04T09:10:43;4.57;;;1.92;;
17598;SDS011;8918;52.092;5.232;2022-07-04T09:13:10;5.15;;;1.92;;
17598;SDS011;8918;52.092;5.232;2022-07-04T09:15:37;5.53;;;2.22;;
17598;SDS011;8918;52.092;5.232;2022-07-04T09:18:03;2.80;;;1.85;;
17598;SDS011;8918;52.092;5.232;2022-07-04T09:20:30;5.15;;;2.15;;
17598;SDS011;8918;52.092;5.232;2022-07-04T09:22:57;4.15;;;2.00;;
17598;SDS011;8918;52.092;5.232;2022-07-04T09:25:23;2.90;;;1.92;;
17598;SDS011;8918;52.092;5.232;2022-07-04T09:27:54;4.18;;;2.25;;
17598;SDS011;8918;52.092;5.232;2022-07-04T09:30:22;3.97;;;2.20;;
17598;SDS011;8918;52.092;5.232;2022-07-04T09:32:54;3.03;;;1.80;;
17598;SDS011;8918;52.092;5.232;2022-07-04T09:35:30;4.15;;;1.92;;
17598;SDS011;8918;52.092;5.232;2022-07-04T09:37:57;8.27;;;2.30;;
17598;SDS011;8918;52.092;5.232;2022-07-04T09:40:33;3.70;;;2.00;;
17598;SDS011;8918;52.092;5.232;2022-07-04T09:43:22;4.43;;;1.77;;
17598;SDS011;8918;52.092;5.232;2022-07-04T09:45:54;2.60;;;2.00;;
17598;SDS011;8918;52.092;5.232;2022-07-04T09:48:22;4.22;;;2.10;;
17598;SDS011;8918;52.092;5.232;2022-07-04T09:50:48;5.05;;;2.85;;
17598;SDS011;8918;52.092;5.232;2022-07-04T09:53:14;4.70;;;2.70;;
17598;SDS011;8918;52.092;5.232;2022-07-04T09:55:39;4.90;;;2.63;;
17598;SDS011;8918;52.092;5.232;2022-07-04T09:58:09;4.80;;;2.60;;
17598;SDS011;8918;52.092;5.232;2022-07-04T10:00:44;5.55;;;2.60;;
17598;SDS011;8918;52.092;5.232;2022-07-04T10:03:28;2.90;;;2.38;;
17598;SDS011;8918;52.092;5.232;2022-07-04T10:08:37;3.70;;;2.10;;
17598;SDS011;8918;52.092;5.232;2022-07-04T10:11:05;6.18;;;2.53;;
17598;SDS011;8918;52.092;5.232;2022-07-04T10:13:31;3.03;;;2.08;;
17598;SDS011;8918;52.092;5.232;2022-07-04T10:15:57;2.85;;;1.80;;
17598;SDS011;8918;52.092;5.232;2022-07-04T10:18:24;3.20;;;2.00;;
17598;SDS011;8918;52.092;5.232;2022-07-04T10:20:51;3.67;;;2.10;;
17598;SDS011;8918;52.092;5.232;2022-07-04T10:23:19;3.50;;;2.38;;
17598;SDS011;8918;52.092;5.232;2022-07-04T10:25:49;2.90;;;2.10;;
17598;SDS011;8918;52.092;5.232;2022-07-04T10:28:16;3.95;;;2.20;;
17598;SDS011;8918;52.092;5.232;2022-07-04T10:30:42;2.40;;;2.03;;
17598;SDS011;8918;52.092;5.232;2022-07-04T10:33:10;3.85;;;2.05;;
17598;SDS011;8918;52.092;5.232;2022-07-04T10:35:46;2.58;;;2.00;;
17598;SDS011;8918;52.092;5.232;2022-07-04T10:38:20;3.15;;;2.00;;
17598;SDS011;8918;52.092;5.232;2022-07-04T10:40:55;2.78;;;2.30;;
17598;SDS011;8918;52.092;5.232;2022-07-04T10:48:48;2.40;;;1.50;;
17598;SDS011;8918;52.092;5.232;2022-07-04T10:51:13;3.05;;;1.85;;
17598;SDS011;8918;52.092;5.232;2022-07-04T10:53:59;2.17;;;1.60;;
17598;SDS011;8918;52.092;5.232;2022-07-04T10:58:58;4.20;;;1.60;;
17598;SDS011;8918;52.092;5.232;2022-07-04T11:01:33;2.55;;;1.40;;
17598;SDS011;8918;52.092;5.232;2022-07-04T11:03:58;2.63;;;1.70;;
17598;SDS011;8918;52.092;5.232;2022-07-04T11:11:47;3.38;;;1.70;;
17598;SDS011;8918;52.092;5.232;2022-07-04T11:17:26;2.67;;;1.55;;
17598;SDS011;8918;52.092;5.232;2022-07-04T11:20:02;6.50;;;2.20;;
17598;SDS011;8918;52.092;5.232;2022-07-04T11:22:29;2.60;;;1.52;;
17598;SDS011;8918;52.092;5.232;2022-07-04T11:24:55;4.07;;;1.70;;
17598;SDS011;8918;52.092;5.232;2022-07-04T11:27:21;3.35;;;1.70;;
17598;SDS011;8918;52.092;5.232;2022-07-04T11:29:54;3.05;;;1.70;;
17598;SDS011;8918;52.092;5.232;2022-07-04T11:32:20;4.57;;;1.50;;
17598;SDS011;8918;52.092;5.232;2022-07-04T11:34:54;2.58;;;1.63;;
17598;SDS011;8918;52.092;5.232;2022-07-04T11:37:20;3.95;;;1.60;;
17598;SDS011;8918;52.092;5.232;2022-07-04T11:39:50;2.25;;;1.38;;
17598;SDS011;8918;52.092;5.232;2022-07-04T11:42:16;1.83;;;1.45;;
17598;SDS011;8918;52.092;5.232;2022-07-04T11:45:00;5.20;;;1.60;;
17598;SDS011;8918;52.092;5.232;2022-07-04T11:47:39;7.05;;;1.73;;
17598;SDS011;8918;52.092;5.232;2022-07-04T11:50:13;2.28;;;1.65;;
17598;SDS011;8918;52.092;5.232;2022-07-04T11:52:48;6.97;;;1.67;;
17598;SDS011;8918;52.092;5.232;2022-07-04T11:55:18;3.15;;;1.50;;
17598;SDS011;8918;52.092;5.232;2022-07-04T11:57:48;2.97;;;1.60;;
17598;SDS011;8918;52.092;5.232;2022-07-04T12:00:17;3.13;;;1.52;;
17598;SDS011;8918;52.092;5.232;2022-07-04T12:02:47;4.43;;;1.40;;
17598;SDS011;8918;52.092;5.232;2022-07-04T12:05:14;5.18;;;1.70;;
17598;SDS011;8918;52.092;5.232;2022-07-04T12:07:42;4.95;;;1.63;;
17598;SDS011;8918;52.092;5.232;2022-07-04T12:10:10;2.45;;;1.50;;
17598;SDS011;8918;52.092;5.232;2022-07-04T12:12:54;2.53;;;1.70;;
17598;SDS011;8918;52.092;5.232;2022-07-04T12:15:41;3.28;;;1.50;;
17598;SDS011;8918;52.092;5.232;2022-07-04T12:18:18;4.53;;;1.45;;
17598;SDS011;8918;52.092;5.232;2022-07-04T12:20:45;2.38;;;1.35;;
17598;SDS011;8918;52.092;5.232;2022-07-04T12:23:12;4.70;;;1.83;;
17598;SDS011;8918;52.092;5.232;2022-07-04T12:25:38;2.40;;;1.65;;
17598;SDS011;8918;52.092;5.232;2022-07-04T12:28:09;1.95;;;1.85;;
17598;SDS011;8918;52.092;5.232;2022-07-04T12:30:36;2.60;;;1.50;;
17598;SDS011;8918;52.092;5.232;2022-07-04T12:33:13;4.85;;;1.55;;
17598;SDS011;8918;52.092;5.232;2022-07-04T12:35:49;5.57;;;1.67;;
17598;SDS011;8918;52.092;5.232;2022-07-04T12:43:20;1.95;;;1.40;;
17598;SDS011;8918;52.092;5.232;2022-07-04T12:45:51;25.10;;;2.30;;
17598;SDS011;8918;52.092;5.232;2022-07-04T12:48:22;247.13;;;25.65;;
17598;SDS011;8918;52.092;5.232;2022-07-04T12:50:52;4.55;;;1.98;;
17598;SDS011;8918;52.092;5.232;2022-07-04T12:53:18;3.30;;;1.63;;
17598;SDS011;8918;52.092;5.232;2022-07-04T12:55:44;3.22;;;1.38;;
17598;SDS011;8918;52.092;5.232;2022-07-04T12:58:11;3.30;;;1.70;;
17598;SDS011;8918;52.092;5.232;2022-07-04T13:00:37;3.40;;;1.58;;
17598;SDS011;8918;52.092;5.232;2022-07-04T13:03:04;4.03;;;1.58;;
17598;SDS011;8918;52.092;5.232;2022-07-04T13:05:30;3.05;;;1.48;;
17598;SDS011;8918;52.092;5.232;2022-07-04T13:07:58;2.63;;;1.50;;
17598;SDS011;8918;52.092;5.232;2022-07-04T13:10:23;2.65;;;1.52;;
17598;SDS011;8918;52.092;5.232;2022-07-04T13:12:49;1.92;;;1.20;;
17598;SDS011;8918;52.092;5.232;2022-07-04T13:15:16;2.50;;;1.60;;
17598;SDS011;8918;52.092;5.232;2022-07-04T13:17:42;4.30;;;1.58;;
17598;SDS011;8918;52.092;5.232;2022-07-04T13:20:08;5.80;;;1.70;;
17598;SDS011;8918;52.092;5.232;2022-07-04T13:22:34;5.32;;;1.80;;
17598;SDS011;8918;52.092;5.232;2022-07-04T13:25:00;6.95;;;1.58;;
17598;SDS011;8918;52.092;5.232;2022-07-04T13:27:28;7.68;;;1.70;;
17598;SDS011;8918;52.092;5.232;2022-07-04T13:29:54;2.72;;;1.30;;
17598;SDS011;8918;52.092;5.232;2022-07-04T13:32:19;2.42;;;1.30;;
17598;SDS011;8918;52.092;5.232;2022-07-04T13:34:45;2.22;;;1.38;;
17598;SDS011;8918;52.092;5.232;2022-07-04T13:37:10;3.13;;;1.30;;
17598;SDS011;8918;52.092;5.232;2022-07-04T13:39:36;2.65;;;1.40;;
17598;SDS011;8918;52.092;5.232;2022-07-04T13:42:02;3.08;;;1.30;;
17598;SDS011;8918;52.092;5.232;2022-07-04T13:44:28;3.50;;;1.38;;
17598;SDS011;8918;52.092;5.232;2022-07-04T13:46:54;2.03;;;1.30;;
17598;SDS011;8918;52.092;5.232;2022-07-04T13:49:21;1.65;;;1.33;;
17598;SDS011;8918;52.092;5.232;2022-07-04T13:51:47;2.17;;;1.40;;
17598;SDS011;8918;52.092;5.232;2022-07-04T13:54:12;2.88;;;1.38;;
17598;SDS011;8918;52.092;5.232;2022-07-04T13:56:38;2.05;;;1.38;;
17598;SDS011;8918;52.092;5.232;2022-07-04T13:59:04;3.28;;;1.40;;
17598;SDS011;8918;52.092;5.232;2022-07-04T14:01:30;1.40;;;1.30;;
17598;SDS011;8918;52.092;5.232;2022-07-04T14:03:56;2.28;;;1.30;;
17598;SDS011;8918;52.092;5.232;2022-07-04T14:06:21;1.83;;;1.48;;
17598;SDS011;8918;52.092;5.232;2022-07-04T14:08:47;2.10;;;1.27;;
17598;SDS011;8918;52.092;5.232;2022-07-04T14:11:13;2.20;;;1.40;;
17598;SDS011;8918;52.092;5.232;2022-07-04T14:13:38;3.15;;;1.38;;
17598;SDS011;8918;52.092;5.232;2022-07-04T14:16:05;3.25;;;1.23;;
17598;SDS011;8918;52.092;5.232;2022-07-04T14:18:31;2.00;;;1.33;;
17598;SDS011;8918;52.092;5.232;2022-07-04T14:20:57;2.25;;;1.20;;
17598;SDS011;8918;52.092;5.232;2022-07-04T14:23:23;4.55;;;1.50;;
17598;SDS011;8918;52.092;5.232;2022-07-04T14:26:16;2.75;;;1.52;;
17598;SDS011;8918;52.092;5.232;2022-07-04T14:28:44;4.10;;;1.70;;
17598;SDS011;8918;52.092;5.232;2022-07-04T14:31:10;3.40;;;1.40;;
17598;SDS011;8918;52.092;5.232;2022-07-04T14:33:36;3.42;;;1.55;;
17598;SDS011;8918;52.092;5.232;2022-07-04T14:36:05;3.10;;;1.30;;
17598;SDS011;8918;52.092;5.232;2022-07-04T14:38:32;5.20;;;1.55;;
17598;SDS011;8918;52.092;5.232;2022-07-04T14:40:58;4.10;;;1.60;;
17598;SDS011;8918;52.092;5.232;2022-07-04T14:43:34;3.70;;;1.73;;
17598;SDS011;8918;52.092;5.232;2022-07-04T14:46:09;9.35;;;1.90;;
17598;SDS011;8918;52.092;5.232;2022-07-04T14:48:36;2.65;;;1.40;;
17598;SDS011;8918;52.092;5.232;2022-07-04T14:51:03;2.72;;;1.42;;
17598;SDS011;8918;52.092;5.232;2022-07-04T14:53:30;2.63;;;1.50;;
17598;SDS011;8918;52.092;5.232;2022-07-04T14:55:56;3.70;;;1.55;;
17598;SDS011;8918;52.092;5.232;2022-07-04T14:58:22;6.55;;;1.60;;
17598;SDS011;8918;52.092;5.232;2022-07-04T15:00:47;1.85;;;1.30;;
17598;SDS011;8918;52.092;5.232;2022-07-04T15:03:13;3.28;;;1.60;;
17598;SDS011;8918;52.092;5.232;2022-07-04T15:05:38;4.07;;;1.60;;
17598;SDS011;8918;52.092;5.232;2022-07-04T15:08:04;3.15;;;1.80;;
17598;SDS011;8918;52.092;5.232;2022-07-04T15:10:30;2.67;;;1.80;;
17598;SDS011;8918;52.092;5.232;2022-07-04T15:12:55;2.00;;;1.50;;
17598;SDS011;8918;52.092;5.232;2022-07-04T15:15:21;2.15;;;1.63;;
17598;SDS011;8918;52.092;5.232;2022-07-04T15:17:47;2.30;;;1.58;;
17598;SDS011;8918;52.092;5.232;2022-07-04T15:20:13;2.13;;;1.30;;
17598;SDS011;8918;52.092;5.232;2022-07-04T15:22:57;4.60;;;1.63;;